createdAt,value
2022-08-03T00:00:32.029Z,11.40
2022-08-03T00:03:06.032Z,10.52
2022-08-03T00:06:04.720Z,11.27
2022-08-03T00:08:40.164Z,11.95
2022-08-03T00:11:14.277Z,11.63
2022-08-03T00:13:47.956Z,11.75
2022-08-03T00:16:21.852Z,11.35
2022-08-03T00:18:57.066Z,11.32
2022-08-03T00:21:32.157Z,11.45
2022-08-03T00:24:06.664Z,10.48
2022-08-03T00:26:40.350Z,10.63
2022-08-03T00:29:13.932Z,11.60
2022-08-03T00:31:52.424Z,11.32
2022-08-03T00:34:57.110Z,10.88
2022-08-03T00:37:21.517Z,10.50
2022-08-03T00:40:16.013Z,11.85
2022-08-03T00:42:51.955Z,10.93
2022-08-03T00:45:27.371Z,11.25
2022-08-03T00:48:01.710Z,11.30
2022-08-03T00:50:40.142Z,11.50
2022-08-03T00:53:16.048Z,12.20
2022-08-03T00:55:52.214Z,11.80
2022-08-03T00:58:25.988Z,11.52
2022-08-03T01:00:59.865Z,11.32
2022-08-03T01:03:33.532Z,11.40
2022-08-03T01:06:11.613Z,11.05
2022-08-03T01:08:53.945Z,11.70
2022-08-03T01:11:35.848Z,11.73
2022-08-03T01:14:38.531Z,11.48
2022-08-03T01:17:19.991Z,10.90
2022-08-03T01:20:00.623Z,10.35
2022-08-03T01:23:12.129Z,11.00
2022-08-03T01:26:06.158Z,11.35
2022-08-03T01:31:30.072Z,13.75
2022-08-03T01:34:09.303Z,11.35
2022-08-03T01:36:53.880Z,11.38
2022-08-03T01:39:30.633Z,12.43
2022-08-03T01:42:07.754Z,11.98
2022-08-03T01:44:44.164Z,11.82
2022-08-03T01:47:22.526Z,11.68
2022-08-03T01:49:58.904Z,12.35
2022-08-03T01:52:34.539Z,12.35
2022-08-03T01:55:11.209Z,12.40
2022-08-03T01:58:04.742Z,12.35
2022-08-03T02:00:41.517Z,12.75
2022-08-03T02:03:17.981Z,13.40
2022-08-03T02:06:17.843Z,12.65
2022-08-03T02:08:49.976Z,11.95
2022-08-03T02:11:24.049Z,13.45
2022-08-03T02:14:00.072Z,12.50
2022-08-03T02:16:35.359Z,13.23
2022-08-03T02:19:12.503Z,13.00
2022-08-03T02:21:57.356Z,12.40
2022-08-03T02:24:35.078Z,12.40
2022-08-03T02:27:16.424Z,12.60
2022-08-03T02:29:54.280Z,12.60
2022-08-03T02:32:32.026Z,12.43
2022-08-03T02:35:12.505Z,12.35
2022-08-03T02:37:50.196Z,12.88
2022-08-03T02:40:25.792Z,12.35
2022-08-03T02:43:04.024Z,12.52
2022-08-03T02:45:45.511Z,11.82
2022-08-03T02:48:24.188Z,12.73
2022-08-03T02:51:01.163Z,11.75
2022-08-03T02:53:36.353Z,12.38
2022-08-03T02:56:11.682Z,11.93
2022-08-03T02:58:46.753Z,12.27
2022-08-03T03:01:23.393Z,11.15
2022-08-03T03:03:58.704Z,11.68
2022-08-03T03:06:37.699Z,11.50
2022-08-03T03:09:13.693Z,11.43
2022-08-03T03:11:49.022Z,10.75
2022-08-03T03:14:33.878Z,11.73
2022-08-03T03:17:09.605Z,10.85
2022-08-03T03:19:45.375Z,11.15
2022-08-03T03:22:21.354Z,11.45
2022-08-03T03:24:56.125Z,11.77
2022-08-03T03:27:30.635Z,10.93
2022-08-03T03:30:06.750Z,11.15
2022-08-03T03:32:40.914Z,11.68
2022-08-03T03:35:16.811Z,11.55
2022-08-03T03:37:51.869Z,11.27
2022-08-03T03:40:25.845Z,10.52
2022-08-03T03:42:59.382Z,11.10
2022-08-03T03:48:07.312Z,12.15
2022-08-03T03:50:41.662Z,11.60
2022-08-03T03:53:16.906Z,12.35
2022-08-03T03:56:01.218Z,12.15
2022-08-03T03:58:36.308Z,11.20
2022-08-03T04:01:10.137Z,12.38
2022-08-03T04:03:43.949Z,12.80
2022-08-03T04:06:35.170Z,13.00
2022-08-03T04:09:29.310Z,13.00
2022-08-03T04:14:39.383Z,12.05
2022-08-03T04:17:15.167Z,12.60
2022-08-03T04:19:51.991Z,12.75
2022-08-03T04:22:29.433Z,12.82
2022-08-03T04:25:08.622Z,12.57
2022-08-03T04:27:43.821Z,12.65
2022-08-03T04:30:18.023Z,12.57
2022-08-03T04:32:53.239Z,13.45
2022-08-03T04:36:02.072Z,13.38
2022-08-03T04:38:26.995Z,13.57
2022-08-03T04:41:02.517Z,12.55
2022-08-03T04:43:36.680Z,13.50
2022-08-03T04:46:11.685Z,13.65
2022-08-03T04:48:46.433Z,14.15
2022-08-03T04:51:20.326Z,12.77
2022-08-03T04:53:53.921Z,12.52
2022-08-03T04:56:29.011Z,13.57
2022-08-03T04:59:03.170Z,12.15
2022-08-03T05:01:36.980Z,12.18
2022-08-03T05:04:10.887Z,12.45
2022-08-03T05:06:48.083Z,11.80
2022-08-03T05:09:33.481Z,12.60
2022-08-03T05:12:17.130Z,12.02
2022-08-03T05:14:50.867Z,11.63
2022-08-03T05:17:24.454Z,12.65
2022-08-03T05:19:58.052Z,11.20
2022-08-03T05:22:31.739Z,10.57
2022-08-03T05:25:06.011Z,10.68
2022-08-03T05:27:41.048Z,10.80
2022-08-03T05:30:31.430Z,11.85
2022-08-03T05:33:08.033Z,10.15
2022-08-03T05:36:02.484Z,11.70
2022-08-03T05:38:35.652Z,10.63
2022-08-03T05:41:21.214Z,10.77
2022-08-03T05:43:58.891Z,10.55
2022-08-03T05:46:33.073Z,9.93
2022-08-03T05:49:06.792Z,10.07
2022-08-03T05:51:40.438Z,8.77
2022-08-03T05:54:14.471Z,9.50
2022-08-03T05:56:48.068Z,9.25
2022-08-03T05:59:38.052Z,9.02
2022-08-03T06:02:12.177Z,8.52
2022-08-03T06:04:45.804Z,8.93
2022-08-03T06:07:19.853Z,9.23
2022-08-03T06:10:33.310Z,9.32
2022-08-03T06:15:24.622Z,9.88
2022-08-03T06:18:01.794Z,10.82
2022-08-03T06:20:35.618Z,10.52
2022-08-03T06:23:16.009Z,10.30
2022-08-03T06:25:51.294Z,9.38
2022-08-03T06:28:53.140Z,10.00
2022-08-03T06:31:19.982Z,10.25
2022-08-03T06:34:35.121Z,10.07
2022-08-03T06:36:48.685Z,9.85
2022-08-03T06:39:23.676Z,9.43
2022-08-03T06:41:58.194Z,10.75
2022-08-03T06:44:31.874Z,9.93
2022-08-03T06:47:07.033Z,9.15
2022-08-03T06:49:41.763Z,9.10
2022-08-03T06:52:15.386Z,8.27
2022-08-03T06:55:09.619Z,9.63
2022-08-03T06:57:43.310Z,8.75
2022-08-03T07:00:17.462Z,7.75
2022-08-03T07:02:57.686Z,7.63
2022-08-03T07:05:33.685Z,8.15
2022-08-03T07:08:07.994Z,7.80
2022-08-03T07:10:41.690Z,7.90
2022-08-03T07:13:15.312Z,7.97
2022-08-03T07:15:55.768Z,7.25
2022-08-03T07:18:31.627Z,6.10
2022-08-03T07:21:05.469Z,6.60
2022-08-03T07:23:39.054Z,5.60
2022-08-03T07:26:13.409Z,5.30
2022-08-03T07:28:47.094Z,5.35
2022-08-03T07:31:21.025Z,4.93
2022-08-03T07:33:56.235Z,5.38
2022-08-03T07:36:29.863Z,5.18
2022-08-03T07:39:17.582Z,4.88
2022-08-03T07:41:51.982Z,4.55
2022-08-03T07:44:25.547Z,4.20
2022-08-03T07:46:59.381Z,4.60
2022-08-03T07:49:42.457Z,4.30
2022-08-03T07:52:33.413Z,4.22
2022-08-03T07:55:08.398Z,3.85
2022-08-03T07:57:42.144Z,4.60
2022-08-03T08:00:17.991Z,4.25
2022-08-03T08:02:51.713Z,3.95
2022-08-03T08:05:27.027Z,4.20
2022-08-03T08:08:00.676Z,3.65
2022-08-03T08:10:34.408Z,3.70
2022-08-03T08:13:08.352Z,3.40
2022-08-03T08:15:43.673Z,3.47
2022-08-03T08:18:17.414Z,3.63
2022-08-03T08:20:52.829Z,3.80
2022-08-03T08:23:42.727Z,3.85
2022-08-03T08:26:17.931Z,3.47
2022-08-03T08:28:52.970Z,3.40
2022-08-03T08:31:26.567Z,3.85
2022-08-03T08:34:04.642Z,3.70
2022-08-03T08:36:40.090Z,4.63
2022-08-03T08:39:13.852Z,4.03
2022-08-03T08:41:53.375Z,3.67
2022-08-03T08:44:27.107Z,3.03
2022-08-03T08:47:04.179Z,3.15
2022-08-03T08:49:39.814Z,3.17
2022-08-03T08:52:25.165Z,3.03
2022-08-03T08:55:04.072Z,3.45
2022-08-03T08:57:43.525Z,3.13
2022-08-03T09:00:18.901Z,3.33
2022-08-03T09:02:52.532Z,2.78
2022-08-03T09:05:47.404Z,2.80
2022-08-03T09:08:21.922Z,2.50
2022-08-03T09:10:55.635Z,2.22
2022-08-03T09:13:30.682Z,2.42
2022-08-03T09:16:12.891Z,2.45
2022-08-03T09:18:48.488Z,2.15
2022-08-03T09:21:33.911Z,1.90
2022-08-03T09:24:20.585Z,2.15
2022-08-03T09:27:03.298Z,2.15
2022-08-03T09:29:37.207Z,2.28
2022-08-03T09:32:12.645Z,2.53
2022-08-03T09:34:48.178Z,2.22
2022-08-03T09:38:11.192Z,2.17
2022-08-03T09:40:36.999Z,2.60
2022-08-03T09:43:11.382Z,2.30
2022-08-03T09:45:45.897Z,2.58
2022-08-03T09:48:24.798Z,1.95
2022-08-03T09:51:12.749Z,2.47
2022-08-03T09:53:59.692Z,2.30
2022-08-03T09:56:43.149Z,2.50
2022-08-03T09:59:26.049Z,2.53
2022-08-03T10:02:01.162Z,2.72
2022-08-03T10:04:34.879Z,2.35
2022-08-03T10:07:10.731Z,2.97
2022-08-03T10:09:55.656Z,2.63
2022-08-03T10:12:31.045Z,2.80
2022-08-03T10:15:04.812Z,2.80
2022-08-03T10:17:40.324Z,2.90
2022-08-03T10:20:14.251Z,3.00
2022-08-03T10:22:48.898Z,3.28
2022-08-03T10:25:23.469Z,2.70
2022-08-03T10:28:09.594Z,2.80
2022-08-03T10:30:49.275Z,2.72
2022-08-03T10:33:49.624Z,2.70
2022-08-03T10:36:20.578Z,2.67
2022-08-03T10:38:55.366Z,2.38
2022-08-03T10:41:34.735Z,2.35
2022-08-03T10:44:15.865Z,2.95
2022-08-03T10:46:50.839Z,2.60
2022-08-03T10:49:34.678Z,3.10
2022-08-03T10:52:12.988Z,2.67
2022-08-03T10:55:07.729Z,2.78
2022-08-03T10:57:58.591Z,2.92
2022-08-03T11:00:51.165Z,2.88
2022-08-03T11:03:24.741Z,2.97
2022-08-03T11:06:19.239Z,3.03
2022-08-03T11:09:17.053Z,2.60
2022-08-03T11:11:51.700Z,3.22
2022-08-03T11:14:25.385Z,3.60
2022-08-03T11:17:14.533Z,2.92
2022-08-03T11:19:57.503Z,3.33
2022-08-03T11:22:50.079Z,3.30
2022-08-03T11:25:53.323Z,3.13
2022-08-03T11:28:28.650Z,2.90
2022-08-03T11:31:51.821Z,3.38
2022-08-03T11:34:27.579Z,2.97
2022-08-03T11:37:30.109Z,3.30
2022-08-03T11:40:07.337Z,3.40
2022-08-03T11:42:44.131Z,3.28
2022-08-03T11:45:20.022Z,3.15
2022-08-03T11:47:56.523Z,3.22
2022-08-03T11:50:38.014Z,3.35
2022-08-03T11:53:16.363Z,3.40
2022-08-03T11:55:50.305Z,3.20
2022-08-03T11:58:58.107Z,3.33
2022-08-03T12:01:22.983Z,3.65
2022-08-03T12:03:56.865Z,3.13
2022-08-03T12:06:32.043Z,3.55
2022-08-03T12:09:17.627Z,2.97
2022-08-03T12:12:00.381Z,3.35
2022-08-03T12:14:49.199Z,3.13
2022-08-03T12:17:25.398Z,3.58
2022-08-03T12:19:59.135Z,3.53
2022-08-03T12:22:35.196Z,3.70
2022-08-03T12:25:10.593Z,3.00
2022-08-03T12:27:44.126Z,3.00
2022-08-03T12:30:18.102Z,3.10
2022-08-03T12:32:51.805Z,3.15
2022-08-03T12:35:26.152Z,3.15
2022-08-03T12:38:01.304Z,3.50
2022-08-03T12:40:35.059Z,3.78
2022-08-03T12:43:14.145Z,3.17
2022-08-03T12:45:47.884Z,3.38
2022-08-03T12:48:21.578Z,3.42
2022-08-03T12:51:09.961Z,3.15
2022-08-03T12:53:53.952Z,3.50
2022-08-03T12:56:28.029Z,3.40
2022-08-03T12:59:01.804Z,3.70
2022-08-03T13:01:49.013Z,3.50
2022-08-03T13:04:30.654Z,3.50
2022-08-03T13:07:12.708Z,4.00
2022-08-03T13:09:51.545Z,3.88
2022-08-03T13:12:27.242Z,3.75
2022-08-03T13:15:01.904Z,3.80
2022-08-03T13:17:35.999Z,3.50
2022-08-03T13:20:13.113Z,4.03
2022-08-03T13:22:52.132Z,4.50
2022-08-03T13:25:27.090Z,4.57
2022-08-03T13:28:04.796Z,3.80
2022-08-03T13:30:39.904Z,3.58
2022-08-03T13:33:13.726Z,4.13
2022-08-03T13:35:47.288Z,3.53
2022-08-03T13:38:21.663Z,4.00
2022-08-03T13:41:04.863Z,3.90
2022-08-03T13:43:40.201Z,4.00
2022-08-03T13:46:13.995Z,4.00
2022-08-03T13:48:47.674Z,3.83
2022-08-03T13:51:22.512Z,4.07
2022-08-03T13:53:57.464Z,4.03
2022-08-03T13:56:33.375Z,3.78
2022-08-03T13:59:07.504Z,4.10
2022-08-03T14:01:55.026Z,4.40
2022-08-03T14:04:29.417Z,4.45
2022-08-03T14:07:03.330Z,4.22
2022-08-03T14:09:37.054Z,4.10
2022-08-03T14:12:12.101Z,3.85
2022-08-03T14:14:45.842Z,4.90
2022-08-03T14:17:19.719Z,4.15
2022-08-03T14:19:56.940Z,4.07
2022-08-03T14:22:31.597Z,4.25
2022-08-03T14:25:06.475Z,4.10
2022-08-03T14:27:45.097Z,4.00
2022-08-03T14:30:18.921Z,4.13
2022-08-03T14:32:52.515Z,4.22
2022-08-03T14:35:26.540Z,4.28
2022-08-03T14:38:00.170Z,4.18
2022-08-03T14:40:33.852Z,4.78
2022-08-03T14:43:08.961Z,4.60
2022-08-03T14:45:42.940Z,4.05
2022-08-03T14:50:32.074Z,4.78
2022-08-03T14:51:10.485Z,4.15
2022-08-03T14:53:44.151Z,4.68
2022-08-03T14:56:17.935Z,4.35
2022-08-03T14:58:53.024Z,5.05
2022-08-03T15:02:02.195Z,4.60
2022-08-03T15:04:20.480Z,4.72
2022-08-03T15:06:54.320Z,4.85
2022-08-03T15:09:28.087Z,4.80
2022-08-03T15:12:01.835Z,4.43
2022-08-03T15:14:37.901Z,5.95
2022-08-03T15:17:11.770Z,5.95
2022-08-03T15:20:01.594Z,4.78
2022-08-03T15:22:41.210Z,5.45
2022-08-03T15:26:32.314Z,5.25
2022-08-03T15:28:08.428Z,4.78
2022-08-03T15:30:43.616Z,4.45
2022-08-03T15:33:17.164Z,4.63
2022-08-03T15:35:50.935Z,5.28
2022-08-03T15:38:25.972Z,5.07
2022-08-03T15:41:00.010Z,5.45
2022-08-03T15:43:33.679Z,4.95
2022-08-03T15:46:28.657Z,5.93
2022-08-03T15:49:03.051Z,4.60
2022-08-03T15:51:37.096Z,5.40
2022-08-03T15:54:10.793Z,5.30
2022-08-03T15:56:45.620Z,5.05
2022-08-03T15:59:19.903Z,5.10
2022-08-03T16:01:57.307Z,8.35
2022-08-03T16:04:31.047Z,6.68
2022-08-03T16:07:04.694Z,5.53
2022-08-03T16:09:42.352Z,4.90
2022-08-03T16:12:17.648Z,5.45
2022-08-03T16:14:53.433Z,5.32
2022-08-03T16:17:28.854Z,4.82
2022-08-03T16:20:05.104Z,4.43
2022-08-03T16:22:46.980Z,4.57
2022-08-03T16:25:20.715Z,5.10
2022-08-03T16:28:03.170Z,5.18
2022-08-03T16:30:42.776Z,4.97
2022-08-03T16:33:18.326Z,5.38
2022-08-03T16:35:51.901Z,5.93
2022-08-03T16:38:26.296Z,5.07
2022-08-03T16:40:59.897Z,5.10
2022-08-03T16:43:34.908Z,5.40
2022-08-03T16:46:09.875Z,5.75
2022-08-03T16:48:44.897Z,5.47
2022-08-03T16:51:18.673Z,6.10
2022-08-03T16:54:08.002Z,5.50
2022-08-03T16:56:45.919Z,5.10
2022-08-03T16:59:22.361Z,5.55
2022-08-03T17:02:16.558Z,5.93
2022-08-03T17:04:56.193Z,5.40
2022-08-03T17:07:30.384Z,5.50
2022-08-03T17:10:04.335Z,5.18
2022-08-03T17:12:40.387Z,5.60
2022-08-03T17:15:14.621Z,5.38
2022-08-03T17:18:00.094Z,5.78
2022-08-03T17:20:42.607Z,5.88
2022-08-03T17:23:38.110Z,5.85
2022-08-03T17:26:21.274Z,6.43
2022-08-03T17:28:58.127Z,5.57
2022-08-03T17:31:48.813Z,5.90
2022-08-03T17:34:26.517Z,6.40
2022-08-03T17:37:04.109Z,7.70
2022-08-03T17:42:33.001Z,6.60
2022-08-03T17:45:07.807Z,7.10
2022-08-03T17:47:57.994Z,6.20
2022-08-03T17:50:40.258Z,6.83
2022-08-03T17:53:25.064Z,7.30
2022-08-03T17:56:40.351Z,6.80
2022-08-03T17:59:13.527Z,6.78
2022-08-03T18:02:22.257Z,7.15
2022-08-03T18:05:16.685Z,5.93
2022-08-03T18:08:00.862Z,6.93
2022-08-03T18:10:49.922Z,7.30
2022-08-03T18:13:26.426Z,7.07
2022-08-03T18:16:05.845Z,39.53
2022-08-03T18:18:42.978Z,8.02
2022-08-03T18:21:17.562Z,8.60
2022-08-03T18:23:52.410Z,8.15
2022-08-03T18:26:27.609Z,8.02
2022-08-03T18:29:02.812Z,7.75
2022-08-03T18:32:02.453Z,8.50
2022-08-03T18:34:34.243Z,7.90
2022-08-03T18:37:08.730Z,7.70
2022-08-03T18:39:49.951Z,8.20
2022-08-03T18:42:27.814Z,8.07
2022-08-03T18:45:55.105Z,8.32
2022-08-03T18:48:09.824Z,9.10
2022-08-03T18:50:52.470Z,9.10
2022-08-03T18:54:01.850Z,9.15
2022-08-03T18:56:45.048Z,9.13
2022-08-03T18:59:30.430Z,9.75
2022-08-03T19:02:09.265Z,10.32
2022-08-03T19:04:48.055Z,11.75
2022-08-03T19:07:28.876Z,13.30
2022-08-03T19:10:15.809Z,11.23
2022-08-03T19:12:56.314Z,11.13
2022-08-03T19:15:41.508Z,11.90
2022-08-03T19:18:26.501Z,12.98
2022-08-03T19:21:03.574Z,11.50
2022-08-03T19:23:50.602Z,11.23
2022-08-03T19:26:30.951Z,13.32
2022-08-03T19:29:14.798Z,13.15
2022-08-03T19:31:59.319Z,11.95
2022-08-03T19:34:35.110Z,11.40
2022-08-03T19:37:15.440Z,11.38
2022-08-03T19:39:56.651Z,11.90
2022-08-03T19:42:33.808Z,11.75
2022-08-03T19:45:11.278Z,11.60
2022-08-03T19:47:53.870Z,11.32
2022-08-03T19:50:28.231Z,12.25
2022-08-03T19:53:06.520Z,12.98
2022-08-03T19:55:48.857Z,12.85
2022-08-03T19:58:28.813Z,11.80
2022-08-03T20:01:21.219Z,11.80
2022-08-03T20:03:56.695Z,11.30
2022-08-03T20:06:30.372Z,11.80
2022-08-03T20:09:05.434Z,11.95
2022-08-03T20:11:45.026Z,11.52
2022-08-03T20:14:26.227Z,11.95
2022-08-03T20:17:00.505Z,10.77
2022-08-03T20:19:38.171Z,11.20
2022-08-03T20:22:14.320Z,11.27
2022-08-03T20:24:53.019Z,11.45
2022-08-03T20:27:30.106Z,10.93
2022-08-03T20:30:07.029Z,11.50
2022-08-03T20:32:42.715Z,11.45
2022-08-03T20:35:17.938Z,12.25
2022-08-03T20:37:51.536Z,12.18
2022-08-03T20:40:27.317Z,10.95
2022-08-03T20:43:01.569Z,11.27
2022-08-03T20:46:01.044Z,10.60
2022-08-03T20:51:15.729Z,10.02
2022-08-03T20:54:00.410Z,11.50
2022-08-03T20:56:36.642Z,10.73
2022-08-03T20:59:15.210Z,11.98
2022-08-03T21:01:49.007Z,12.88
2022-08-03T21:04:24.134Z,11.88
2022-08-03T21:07:04.038Z,12.30
2022-08-03T21:12:50.091Z,10.38
2022-08-03T21:16:06.860Z,10.57
2022-08-03T21:18:22.455Z,10.50
2022-08-03T21:20:58.675Z,10.27
2022-08-03T21:23:47.681Z,10.43
2022-08-03T21:26:24.732Z,10.02
2022-08-03T21:28:58.650Z,10.45
2022-08-03T21:31:32.211Z,10.57
2022-08-03T21:34:07.137Z,10.75
2022-08-03T21:36:40.648Z,13.48
2022-08-03T21:39:15.697Z,12.77
2022-08-03T21:41:49.364Z,12.75
2022-08-03T21:44:25.162Z,12.25
2022-08-03T21:47:04.434Z,11.63
2022-08-03T21:50:04.390Z,11.57
2022-08-03T21:52:34.000Z,12.23
2022-08-03T21:55:20.579Z,11.98
2022-08-03T21:57:58.592Z,12.23
2022-08-03T22:00:32.766Z,11.30
2022-08-03T22:03:17.452Z,11.90
2022-08-03T22:05:52.450Z,11.43
2022-08-03T22:08:39.124Z,13.13
2022-08-03T22:11:14.965Z,14.00
2022-08-03T22:13:49.099Z,12.30
2022-08-03T22:16:23.342Z,12.05
2022-08-03T22:18:56.955Z,11.90
2022-08-03T22:21:36.440Z,12.10
2022-08-03T22:24:10.368Z,11.63
2022-08-03T22:27:07.007Z,11.43
2022-08-03T22:29:43.370Z,11.73
2022-08-03T22:32:16.988Z,9.45
2022-08-03T22:34:51.264Z,11.23
2022-08-03T22:37:28.814Z,28.52
2022-08-03T22:40:08.825Z,11.52
2022-08-03T22:42:46.193Z,10.40
2022-08-03T22:46:05.939Z,10.68
2022-08-03T22:48:18.095Z,10.80
2022-08-03T22:50:52.193Z,10.77
2022-08-03T22:53:25.784Z,10.82
2022-08-03T22:55:59.916Z,11.52
2022-08-03T22:58:34.873Z,11.02
2022-08-03T23:01:10.366Z,11.70
2022-08-03T23:03:59.288Z,10.90
2022-08-03T23:06:38.482Z,11.10
2022-08-03T23:09:14.231Z,11.18
2022-08-03T23:11:49.207Z,11.65
2022-08-03T23:14:24.930Z,11.25
2022-08-03T23:17:04.283Z,11.35
2022-08-03T23:19:41.694Z,12.13
2022-08-03T23:22:30.204Z,11.18
2022-08-03T23:25:04.968Z,12.07
2022-08-03T23:27:42.003Z,12.02
2022-08-03T23:30:17.455Z,12.15
2022-08-03T23:32:54.731Z,12.93
2022-08-03T23:36:28.210Z,13.68
2022-08-03T23:38:40.591Z,14.45
2022-08-03T23:41:14.891Z,13.45
2022-08-03T23:43:52.450Z,13.27
2022-08-03T23:46:30.935Z,14.57
2022-08-03T23:49:04.940Z,52.78
2022-08-03T23:51:44.877Z,14.85
2022-08-03T23:54:30.502Z,14.48
2022-08-03T23:57:10.596Z,13.60
